• Join FlightAware (Why Join?)
  • Login
  • US Flag 
03:12PM EST


 

Airport Tracker/Info


-or-


 

Live Flight TrackerFlight Track Log ✈ SKW6306 ✈ 29-Jun-2013 ✈ KDEN - CYXE

Flight Track Log - Related Links

Times and Time Zones

All times are in EDT time to prevent confusion due to time zone crossing. See the SKW6306 flight status page for this flight to view local times or setup timezone preferences in your user account.

Time Position Orientation Groundspeed Altitude Reporting Facility
EDT Latitude Longitude Course Direction KTS MPH feet Rate Location/Type
02:16PM 39.8808 -104.5897 346° North 189 217 6,700  Level Denver Center
02:17PM 39.9014 -104.5097 71° East 226 260 9,200 1,860 Climbing Denver Center
02:18PM 39.9658 -104.5183 354° North 249 287 10,600 1,500 Climbing Denver Center
02:19PM 40.1604 -104.7698 347° North  Level FlightAware Approximate
02:20PM 40.2648 -104.8011 347° North  Level FlightAware Approximate
02:20PM 40.0464 -104.5494 344° North 281 323 12,400  Level Denver Center
02:21PM 40.3688 -104.8340 346° North  Level FlightAware Approximate
02:21PM 40.1244 -104.5808 343° North 294 338 14,100  Level Denver Center
02:22PM 40.4725 -104.8686 346° North  Level FlightAware Approximate
02:22PM 40.2069 -104.6144 343° North 284 327 16,300  Level Denver Center
02:23PM 40.2900 -104.6472 343° North 317 365 16,700 540 Climbing Denver Center
02:24PM 40.3864 -104.6878 342° North 339 390 17,500 660 Climbing Denver Center
02:25PM 40.4808 -104.7256 343° North 353 406 18,100 720 Climbing Denver Center
02:26PM 40.5825 -104.7694 342° North 357 411 19,000 780 Climbing Denver Center
02:27PM 40.6786 -104.8072 343° North 362 417 19,800 720 Climbing Denver Center
02:28PM 40.7647 -104.8472 341° North 351 404 20,500 720 Climbing Denver Center
02:29PM 40.8792 -104.8975 342° North 358 412 21,400 720 Climbing Denver Center
02:30PM 40.9753 -104.9450 340° North 365 420 22,000 540 Climbing Denver Center
02:31PM 41.0669 -104.9917 339° North 371 427 22,600 600 Climbing Denver Center
02:32PM 41.1764 -105.0442 340° North 374 430 23,300 540 Climbing Denver Center
02:33PM 41.2711 -105.0892 340° North 376 433 23,800 480 Climbing Denver Center
02:34PM 41.3831 -105.1475 339° North 383 441 24,400 480 Climbing Denver Center
02:35PM 41.4803 -105.1944 340° North 387 445 24,900 480 Climbing Denver Center
02:36PM 41.5953 -105.2431 342° North 388 447 25,400 480 Climbing Denver Center
02:37PM 41.6981 -105.2622 352° North 387 445 25,900 480 Climbing Denver Center
02:38PM 41.8183 -105.2842 352° North 390 449 26,500 480 Climbing Denver Center
02:39PM 41.9222 -105.3033 352° North 391 450 27,000 480 Climbing Denver Center
02:40PM 42.0267 -105.3242 352° North 394 453 27,500 480 Climbing Denver Center
02:41PM 42.1481 -105.3461 352° North 391 450 28,000 480 Climbing Denver Center
02:42PM 42.2508 -105.3661 352° North 389 448 28,500 480 Climbing Denver Center
02:43PM 42.3708 -105.3886 352° North 387 445 29,100 480 Climbing Denver Center
02:44PM 42.4728 -105.4078 352° North 384 442 29,600 480 Climbing Denver Center
02:45PM 42.5906 -105.4322 351° North 381 438 30,100 480 Climbing Denver Center
02:46PM 42.6928 -105.4517 352° North 385 443 30,600 480 Climbing Denver Center
02:47PM 42.8092 -105.4728 352° North 379 436 31,200 480 Climbing Denver Center
02:48PM 42.9097 -105.4925 352° North 380 437 31,700 360 Climbing Denver Center
02:50PM 43.0242 -105.5133 352° North 372 428 32,000 120 Climbing Denver Center
02:51PM 43.1250 -105.5336 352° North 379 436 32,000  Level Denver Center
02:52PM 43.2283 -105.5542 352° North 388 447 32,000  Level Denver Center
02:53PM 43.3508 -105.5781 352° North 395 455 32,000  Level Denver Center
02:54PM 43.4564 -105.5997 352° North 399 459 32,000  Level Denver Center
02:55PM 43.5817 -105.6231 352° North 403 464 32,000  Level Denver Center
02:56PM 43.6900 -105.6447 352° North 406 467 32,000  Level Denver Center
02:57PM 43.8158 -105.6692 352° North 409 471 32,000  Level Denver Center
02:58PM 43.9231 -105.6908 352° North 408 470 32,000  Level Denver Center
02:59PM 44.0672 -105.7192 352° North 408 470 32,000  Level Denver Center
03:00PM 44.1756 -105.7414 352° North 409 471 32,000  Level Denver Center
03:01PM 44.3008 -105.7678 351° North 409 471 32,000  Level Denver Center
03:02PM 44.4086 -105.7889 352° North 408 470 32,000  Level Denver Center
03:03PM 44.4808 -105.8050 351° North 408 470 32,000  Level Salt Lake Center
03:04PM 44.6064 -105.8317 351° North 409 471 32,000  Level Salt Lake Center
03:05PM 44.7144 -105.8544 351° North 409 471 32,000  Level Salt Lake Center
03:06PM 44.8417 -105.8789 352° North 412 474 32,000  Level Salt Lake Center
03:07PM 44.9497 -105.9008 352° North 411 473 32,000  Level Salt Lake Center
03:08PM 45.0744 -105.9294 351° North 408 470 32,000  Level Salt Lake Center
03:09PM 45.1819 -105.9511 352° North 407 468 32,000  Level Salt Lake Center
03:10PM 45.2892 -105.9736 352° North 408 470 32,000  Level Salt Lake Center
03:11PM 45.4014 -105.9989 351° North 408 470 32,000  Level Salt Lake Center
03:12PM 45.5350 -106.0269 352° North 406 467 32,000  Level Salt Lake Center
03:13PM 45.6472 -106.0497 352° North 407 468 32,000  Level Salt Lake Center
03:14PM 45.7592 -106.0731 352° North 406 467 32,000  Level Salt Lake Center
03:15PM 45.8700 -106.0956 352° North 405 466 32,000  Level Salt Lake Center
03:16PM 45.9806 -106.1183 352° North 404 465 32,000  Level Salt Lake Center
03:17PM 46.0908 -106.1414 352° North 402 463 32,000  Level Salt Lake Center
03:18PM 46.2017 -106.1658 351° North 402 463 32,000  Level Salt Lake Center
03:19PM 46.3358 -106.1956 351° North 404 465 32,000  Level Salt Lake Center
03:20PM 46.4483 -106.2203 351° North 405 466 32,000  Level Salt Lake Center
03:21PM 46.5608 -106.2444 352° North 407 468 32,000  Level Salt Lake Center
03:22PM 46.6728 -106.2703 351° North 408 470 32,000  Level Salt Lake Center
03:23PM 46.7844 -106.2953 351° North 407 468 32,000  Level Salt Lake Center
03:24PM 46.8981 -106.3208 351° North 408 470 32,000  Level Salt Lake Center
03:25PM 47.0114 -106.3469 351° North 410 472 32,000  Level Salt Lake Center
03:26PM 47.1456 -106.3778 351° North 409 471 32,000  Level Salt Lake Center
03:28PM 47.2583 -106.4033 351° North 409 471 32,000  Level Salt Lake Center
03:29PM 47.3717 -106.4286 351° North 410 472 32,000  Level Salt Lake Center
03:30PM 47.4856 -106.4547 351° North 413 475 32,000  Level Salt Lake Center
03:31PM 47.6667 -106.5167 347° North 420 483 32,000  Level Winnipeg Center
03:32PM 47.7667 -106.5500 347° North 410 472 32,000  Level Winnipeg Center
03:33PM 47.8833 -106.5667 355° North 410 472 32,000  Level Winnipeg Center
03:34PM 47.9581 -106.5656 North 410 472 32,000  Level Salt Lake Center
03:35PM 48.0725 -106.5908 352° North 412 474 32,000  Level Salt Lake Center
03:36PM 48.1847 -106.6183 351° North 411 473 32,000  Level Salt Lake Center
03:37PM 48.2933 -106.6644 344° North 409 471 32,000  Level Salt Lake Center
03:38PM 48.4014 -106.7169 342° North 409 471 32,000  Level Salt Lake Center
03:39PM 48.5081 -106.7686 342° North 405 466 32,000  Level Salt Lake Center
03:40PM 48.6139 -106.8222 341° North 404 465 32,000  Level Salt Lake Center
03:41PM 48.7425 -106.8844 342° North 404 465 32,000  Level Salt Lake Center
03:42PM 48.8475 -106.9392 341° North 402 463 32,000  Level Salt Lake Center
03:43PM 48.9544 -106.9925 342° North 403 464 32,000  Level Salt Lake Center
03:44PM 49.0603 -107.0461 342° North 403 464 32,000  Level Salt Lake Center
03:45PM 49.1667 -107.1500 327° Northwest 410 472 32,000  Level Winnipeg Center
03:46PM 49.2833 -107.2000 344° North 410 472 32,000  Level Winnipeg Center
03:47PM 49.3833 -107.2333 348° North 410 472 32,000  Level Winnipeg Center
03:48PM 49.4833 -107.3167 332° Northwest 410 472 32,000  Level Winnipeg Center
03:49PM 49.6000 -107.3667 344° North 410 472 32,000  Level Winnipeg Center
03:50PM 49.7167 -107.4167 345° North 410 472 32,000  Level Winnipeg Center
03:51PM 49.8167 -107.4667 342° North 410 472 32,000  Level Winnipeg Center
03:52PM 49.9333 -107.5500 335° Northwest 410 472 32,000  Level Winnipeg Center
03:53PM 50.0333 -107.6000 342° North 410 472 32,000  Level Winnipeg Center
03:54PM 50.1500 -107.6500 345° North 410 472 32,000  Level Winnipeg Center
03:55PM 50.2667 -107.7000 345° North 420 483 32,000  Level Winnipeg Center
03:56PM 50.3667 -107.7000 360° North 420 483 32,000  Level Winnipeg Center
03:57PM 50.5000 -107.7000 360° North 430 495 32,000  Level Winnipeg Center
03:58PM 50.6167 -107.7000 360° North 430 495 32,000  Level Winnipeg Center
03:59PM 50.7333 -107.6833 North 430 495 32,000  Level Winnipeg Center
04:00PM 50.8500 -107.6833 360° North 430 495 32,000  Level Winnipeg Center
04:01PM 50.9833 -107.6500 North 430 495 32,000  Level Winnipeg Center
04:02PM 51.1000 -107.6333 North 440 506 32,000 -1,200 Level Winnipeg Center
04:03PM 51.2167 -107.6333 360° North 450 518 29,600 -2,940 Descending Winnipeg Center
04:04PM 51.3333 -107.5667 20° North 460 529 26,200 -3,300 Descending Winnipeg Center
04:05PM 51.4500 -107.5000 20° North 440 506 23,000 -3,300 Descending Winnipeg Center
04:06PM 51.5500 -107.4333 23° Northeast 410 472 19,700 -3,060 Descending Winnipeg Center
04:07PM 51.6667 -107.3500 24° Northeast 390 449 16,900 -2,880 Descending Winnipeg Center
04:08PM 51.7500 -107.2833 26° Northeast 370 426 14,000 -2,640 Descending Winnipeg Center
04:09PM 51.8333 -107.2333 20° North 340 391 11,700 -1,920 Descending Winnipeg Center
04:10PM 51.9167 -107.1667 26° Northeast 300 345 10,200 -1,800 Descending Winnipeg Center
04:11PM 51.9833 -107.1333 17° North 280 322 8,200 -1,980 Descending Winnipeg Center
04:12PM 52.0333 -107.0833 32° Northeast 260 299 6,300 -1,860 Descending Winnipeg Center
04:13PM 52.1167 -107.0167 26° Northeast 260 299 4,500 -1,800 Descending Winnipeg Center